Time;durP1;ratioP1;P1;durP2;ratioP2;P2;SDS_P1;SDS_P2;PMS_P1;PMS_P2;Temp;Humidity;BMP_temperature;BMP_pressure;BME280_temperature;BME280_humidity;BME280_pressure;Samples;Min_cycle;Max_cycle;Signal;HPM_P1;HPM_P2
2023/09/21 00:01:03;;;;;;;3.22;1.17;;;18.70;92.10;;;;;;6174407;22;89504;-91
2023/09/21 00:03:37;;;;;;;5.72;1.40;;;18.70;92.00;;;;;;6171949;22;90003;-92
2023/09/21 00:06:03;;;;;;;4.15;1.38;;;18.70;91.70;;;;;;6174413;22;87211;-93
2023/09/21 00:08:30;;;;;;;3.03;1.27;;;18.70;91.80;;;;;;6173035;22;87746;-92
2023/09/21 00:11:07;;;;;;;2.20;1.17;;;18.70;91.60;;;;;;6173256;22;90175;-91
2023/09/21 00:13:32;;;;;;;2.67;0.90;;;18.70;91.70;;;;;;6174827;22;87971;-91
2023/09/21 00:16:00;;;;;;;3.35;1.77;;;18.70;91.70;;;;;;6175043;22;87752;-93
2023/09/21 00:18:26;;;;;;;5.07;1.27;;;18.70;91.50;;;;;;6173608;22;89351;-92
2023/09/21 00:20:55;;;;;;;2.83;1.10;;;18.70;91.50;;;;;;6175124;22;89566;-92
2023/09/21 00:23:25;;;;;;;1.77;0.95;;;18.70;91.50;;;;;;6173580;22;88291;-92
2023/09/21 00:25:57;;;;;;;2.92;0.90;;;18.70;91.60;;;;;;6174543;22;87627;-91
2023/09/21 00:28:24;;;;;;;2.70;1.33;;;18.70;91.60;;;;;;6172813;22;89215;-92
2023/09/21 00:30:53;;;;;;;3.35;1.00;;;18.60;91.50;;;;;;6173420;22;88822;-93
2023/09/21 00:33:19;;;;;;;3.67;1.30;;;18.60;91.70;;;;;;6173272;22;88810;-92
2023/09/21 00:35:44;;;;;;;4.43;1.50;;;18.60;91.50;;;;;;6173358;22;87624;-92
2023/09/21 00:38:14;;;;;;;3.55;1.10;;;18.60;91.70;;;;;;6173934;22;87614;-91
2023/09/21 00:40:40;;;;;;;4.40;1.20;;;18.60;91.90;;;;;;6175576;22;88032;-92
2023/09/21 00:43:18;;;;;;;5.20;1.13;;;18.60;91.90;;;;;;6175598;22;90274;-92
2023/09/21 00:45:51;;;;;;;0.85;0.80;;;18.60;91.80;;;;;;6175708;22;86817;-91
2023/09/21 00:48:22;;;;;;;;;;;18.50;91.90;;;;;;6174932;22;88058;-91
2023/09/21 00:50:49;;;;;;;3.25;1.38;;;18.50;91.70;;;;;;6175230;22;89657;-92
2023/09/21 00:53:16;;;;;;;4.20;1.40;;;18.50;91.80;;;;;;6174430;22;88676;-92
2023/09/21 00:55:47;;;;;;;3.63;1.10;;;18.50;91.80;;;;;;6174459;22;87539;-91
2023/09/21 00:58:13;;;;;;;2.50;1.42;;;18.50;92.00;;;;;;6174633;22;89232;-92
2023/09/21 01:00:39;;;;;;;1.58;0.95;;;18.50;91.90;;;;;;6175854;22;88755;-92
2023/09/21 01:03:11;;;;;;;5.45;1.30;;;18.50;92.00;;;;;;6174524;22;88768;-92
2023/09/21 01:05:42;;;;;;;8.05;1.10;;;18.50;91.80;;;;;;6175413;22;87414;-92
2023/09/21 01:08:20;;;;;;;5.38;1.27;;;18.50;91.90;;;;;;6173738;22;88026;-91
2023/09/21 01:10:49;;;;;;;4.03;0.95;;;18.50;92.00;;;;;;6173980;22;88211;-92
2023/09/21 01:13:19;;;;;;;3.92;1.17;;;18.60;92.00;;;;;;6173925;22;89290;-92
2023/09/21 01:15:58;;;;;;;2.40;1.23;;;18.50;92.10;;;;;;6175472;22;87774;-92
2023/09/21 01:18:24;;;;;;;2.95;1.05;;;18.50;92.10;;;;;;6173008;22;89132;-93
2023/09/21 01:20:50;;;;;;;1.70;0.93;;;18.50;92.10;;;;;;6174781;22;89568;-91
2023/09/21 01:23:22;;;;;;;1.55;1.10;;;18.50;92.10;;;;;;6174500;22;88962;-91
2023/09/21 01:25:50;;;;;;;2.40;1.05;;;18.50;91.90;;;;;;6174487;22;87813;-91
2023/09/21 01:28:19;;;;;;;2.85;1.52;;;18.50;92.00;;;;;;6174782;22;88301;-92
2023/09/21 01:30:45;;;;;;;2.65;1.25;;;18.50;92.30;;;;;;6176439;22;90191;-91
2023/09/21 01:33:11;;;;;;;4.68;0.98;;;18.50;92.00;;;;;;6175277;22;90351;-91
2023/09/21 01:35:43;;;;;;;2.53;0.93;;;18.40;92.00;;;;;;6178081;22;86676;-92
2023/09/21 01:38:09;;;;;;;5.75;1.10;;;18.50;92.10;;;;;;6175889;22;87936;-93
2023/09/21 01:40:36;;;;;;;2.05;1.02;;;18.40;92.20;;;;;;6173690;22;90473;-92
2023/09/21 01:43:14;;;;;;;2.45;1.23;;;18.40;92.20;;;;;;6173993;22;90033;-92
2023/09/21 01:45:40;;;;;;;3.05;1.10;;;18.40;92.30;;;;;;6173957;22;87547;-93
2023/09/21 01:48:10;;;;;;;3.78;1.30;;;18.40;92.20;;;;;;6172198;22;87952;-92
2023/09/21 01:50:40;;;;;;;3.20;1.00;;;18.40;92.20;;;;;;6173638;22;89146;-92
2023/09/21 01:53:09;;;;;;;5.22;1.50;;;18.40;92.10;;;;;;6174030;22;89278;-92
2023/09/21 01:55:35;;;;;;;3.25;1.00;;;18.40;92.20;;;;;;6174204;22;87326;-92
2023/09/21 01:58:05;;;;;;;2.38;1.10;;;18.40;92.20;;;;;;6174748;22;88853;-92
2023/09/21 02:00:34;;;;;;;6.80;1.25;;;18.40;92.40;;;;;;6174820;22;92512;-94
2023/09/21 02:03:05;;;;;;;2.97;1.20;;;18.40;92.30;;;;;;6173837;22;89203;-91
2023/09/21 02:05:32;;;;;;;3.53;1.38;;;18.40;92.40;;;;;;6173711;22;87825;-93
2023/09/21 02:07:58;;;;;;;4.70;1.30;;;18.40;92.20;;;;;;6172339;22;89057;-92
2023/09/21 02:10:24;;;;;;;2.10;1.10;;;18.40;92.30;;;;;;6175413;22;88577;-93
2023/09/21 02:13:00;;;;;;;4.43;1.23;;;18.40;92.40;;;;;;6174588;22;89776;-93
2023/09/21 02:15:27;;;;;;;2.58;1.15;;;18.30;92.50;;;;;;6173878;22;87393;-91
2023/09/21 02:17:55;;;;;;;2.78;1.10;;;18.40;92.40;;;;;;6173273;22;88451;-93
2023/09/21 02:20:28;;;;;;;3.50;1.13;;;18.30;92.50;;;;;;6172962;22;90069;-93
2023/09/21 02:23:02;;;;;;;3.83;1.20;;;18.30;92.50;;;;;;6172313;22;90221;-92
2023/09/21 02:25:40;;;;;;;2.22;1.17;;;18.30;92.50;;;;;;6173339;22;86801;-94
2023/09/21 02:28:10;;;;;;;3.00;1.27;;;18.30;92.70;;;;;;6173569;22;87841;-92
2023/09/21 02:30:40;;;;;;;1.95;1.10;;;18.30;92.70;;;;;;6174133;22;89379;-93
2023/09/21 02:33:09;;;;;;;2.67;1.58;;;18.20;92.80;;;;;;6172886;22;88912;-92
2023/09/21 02:35:41;;;;;;;3.83;1.10;;;18.20;92.90;;;;;;6173102;22;87754;-94
2023/09/21 02:38:09;;;;;;;2.97;1.30;;;18.20;92.90;;;;;;6173353;22;88262;-92
2023/09/21 02:40:35;;;;;;;2.65;1.50;;;18.20;93.00;;;;;;6173720;22;89365;-91
2023/09/21 02:43:01;;;;;;;2.38;1.50;;;18.20;93.20;;;;;;6174442;22;89321;-92
2023/09/21 02:45:28;;;;;;;2.35;1.20;;;18.20;93.10;;;;;;6175467;22;87299;-92
2023/09/21 02:47:54;;;;;;;2.25;1.45;;;18.20;93.10;;;;;;6175277;22;88047;-92
2023/09/21 02:50:30;;;;;;;2.72;1.23;;;18.20;93.20;;;;;;6174117;22;89374;-93
2023/09/21 02:53:01;;;;;;;3.22;1.20;;;18.20;93.30;;;;;;6174261;22;88632;-92
2023/09/21 02:55:28;;;;;;;2.17;1.25;;;18.20;93.40;;;;;;6174508;22;87652;-94
2023/09/21 02:58:10;;;;;;;2.15;1.17;;;18.10;93.70;;;;;;6173721;22;88832;-93
2023/09/21 03:00:42;;;;;;;3.88;1.48;;;18.10;93.70;;;;;;6173519;22;89382;-93
2023/09/21 03:03:13;;;;;;;2.67;1.10;;;18.10;93.70;;;;;;6174292;22;90677;-93
2023/09/21 03:05:42;;;;;;;3.88;1.50;;;18.10;93.70;;;;;;6174033;22;87625;-93
2023/09/21 03:08:14;;;;;;;3.38;1.65;;;18.20;93.90;;;;;;6173390;22;87812;-94
2023/09/21 03:10:40;;;;;;;4.77;1.43;;;18.10;93.90;;;;;;6173287;22;90782;-92
2023/09/21 03:13:06;;;;;;;2.78;1.33;;;18.10;94.00;;;;;;6174795;22;89557;-93
2023/09/21 03:15:36;;;;;;;3.65;1.48;;;18.20;93.90;;;;;;6174700;22;86656;-94
2023/09/21 03:18:03;;;;;;;4.90;1.25;;;18.20;93.80;;;;;;6173171;22;87783;-92
2023/09/21 03:20:32;;;;;;;5.07;2.13;;;18.20;94.00;;;;;;6174072;22;89624;-93
2023/09/21 03:23:04;;;;;;;2.83;1.42;;;18.30;94.30;;;;;;6174090;22;88808;-92
2023/09/21 03:25:33;;;;;;;2.60;1.30;;;18.30;94.00;;;;;;6174925;22;87669;-92
2023/09/21 03:28:15;;;;;;;4.90;1.35;;;18.30;94.10;;;;;;6173091;22;88931;-92
2023/09/21 03:30:42;;;;;;;4.50;1.55;;;18.30;94.20;;;;;;6173262;22;89973;-92
2023/09/21 03:33:09;;;;;;;3.10;1.15;;;18.30;94.10;;;;;;6172975;22;89968;-92
2023/09/21 03:35:37;;;;;;;6.25;1.95;;;18.30;94.40;;;;;;6173789;22;93642;-93
2023/09/21 03:38:06;;;;;;;2.78;1.50;;;18.30;94.30;;;;;;6173820;22;87742;-93
2023/09/21 03:40:32;;;;;;;3.38;1.30;;;18.20;94.50;;;;;;6173955;22;89939;-94
2023/09/21 03:42:59;;;;;;;4.38;1.75;;;18.20;94.40;;;;;;6174234;22;88473;-94
2023/09/21 03:45:25;;;;;;;6.03;1.58;;;18.20;94.40;;;;;;6175008;22;89495;-93
2023/09/21 03:47:54;;;;;;;3.15;1.20;;;18.20;94.30;;;;;;6172240;22;89304;-93
2023/09/21 03:50:25;;;;;;;2.95;1.25;;;18.20;94.40;;;;;;6171797;22;89961;-92
2023/09/21 03:52:53;;;;;;;4.50;1.30;;;18.20;94.50;;;;;;6173485;22;87429;-92
2023/09/21 03:55:19;;;;;;;2.00;1.20;;;18.30;94.50;;;;;;6172826;22;87704;-95
2023/09/21 03:57:47;;;;;;;3.90;1.27;;;18.20;94.50;;;;;;6171982;22;87912;-93
2023/09/21 04:00:36;;;;;;;4.45;1.58;;;18.20;94.60;;;;;;6175284;22;90987;-93
2023/09/21 04:03:10;;;;;;;5.28;1.52;;;18.20;94.80;;;;;;6175129;22;90221;-94
2023/09/21 04:05:37;;;;;;;3.20;1.40;;;18.20;94.80;;;;;;6174272;22;86351;-92
2023/09/21 04:08:04;;;;;;;3.25;1.48;;;18.20;94.70;;;;;;6172885;22;89097;-92
2023/09/21 04:10:30;;;;;;;5.80;1.92;;;18.20;94.70;;;;;;6172103;22;89756;-94
2023/09/21 04:12:56;;;;;;;2.97;1.35;;;18.20;94.80;;;;;;6172644;22;89987;-91
2023/09/21 04:15:27;;;;;;;1.83;1.50;;;18.20;94.90;;;;;;6173319;22;87494;-92
2023/09/21 04:17:53;;;;;;;5.75;1.88;;;18.20;94.90;;;;;;6172405;22;88846;-92
2023/09/21 04:20:19;;;;;;;4.72;1.73;;;18.20;95.10;;;;;;6171477;22;90946;-93
2023/09/21 04:22:47;;;;;;;2.17;1.17;;;18.20;95.00;;;;;;6172627;22;89886;-94
2023/09/21 04:25:16;;;;;;;4.07;1.73;;;18.20;95.00;;;;;;6172793;22;87242;-92
2023/09/21 04:27:43;;;;;;;3.03;1.58;;;18.30;95.20;;;;;;6171842;22;88251;-94
2023/09/21 04:30:14;;;;;;;7.00;1.70;;;18.30;95.10;;;;;;6173053;22;89495;-95
2023/09/21 04:32:46;;;;;;;3.97;1.50;;;18.30;95.20;;;;;;6173606;22;88564;-94
2023/09/21 04:35:13;;;;;;;3.90;1.00;;;18.30;95.10;;;;;;6173106;22;87893;-93
2023/09/21 04:37:39;;;;;;;5.60;1.90;;;18.30;95.00;;;;;;6170812;22;88539;-93
2023/09/21 04:40:09;;;;;;;6.00;1.15;;;18.30;95.20;;;;;;6174294;22;90817;-92
2023/09/21 04:42:38;;;;;;;6.38;1.55;;;18.30;95.20;;;;;;6147558;22;94967;-92
2023/09/21 04:45:08;;;;;;;3.03;1.40;;;18.30;95.10;;;;;;6172989;22;87157;-92
2023/09/21 04:47:35;;;;;;;6.30;1.63;;;18.30;95.10;;;;;;6173689;22;87910;-92
2023/09/21 04:50:00;;;;;;;2.55;1.38;;;18.30;95.20;;;;;;6172099;22;89340;-92
2023/09/21 04:52:26;;;;;;;5.05;1.80;;;18.30;95.20;;;;;;6173544;22;89254;-92
2023/09/21 04:54:52;;;;;;;2.83;1.40;;;18.20;95.20;;;;;;6176379;22;86595;-93
2023/09/21 04:57:22;;;;;;;6.45;1.40;;;18.20;95.20;;;;;;6172905;22;87339;-92
2023/09/21 04:59:48;;;;;;;4.82;1.90;;;18.20;95.30;;;;;;6174177;22;88674;-92
2023/09/21 05:02:14;;;;;;;3.40;1.75;;;18.20;95.20;;;;;;6175941;22;88589;-92
2023/09/21 05:04:39;;;;;;;2.55;1.48;;;18.20;95.40;;;;;;6174198;22;87557;-92
2023/09/21 05:07:06;;;;;;;2.33;1.33;;;18.30;95.50;;;;;;6176714;22;87879;-91
2023/09/21 05:09:33;;;;;;;5.90;2.50;;;18.20;95.40;;;;;;6177967;22;89712;-92
2023/09/21 05:12:03;;;;;;;4.72;1.80;;;18.30;95.50;;;;;;6174947;22;89493;-91
2023/09/21 05:14:29;;;;;;;4.05;1.60;;;18.20;95.50;;;;;;6178119;22;87034;-92
2023/09/21 05:16:57;;;;;;;5.88;1.55;;;18.20;95.50;;;;;;6175932;22;89174;-93
2023/09/21 05:19:23;;;;;;;4.13;1.70;;;18.20;95.60;;;;;;6178310;22;89614;-92
2023/09/21 05:21:49;;;;;;;2.10;1.40;;;18.30;95.70;;;;;;6177224;22;89585;-91
2023/09/21 05:24:14;;;;;;;2.30;1.15;;;18.30;95.80;;;;;;6176728;22;87448;-93
2023/09/21 05:26:40;;;;;;;6.50;1.67;;;18.30;95.60;;;;;;6175202;22;89261;-93
2023/09/21 05:29:06;;;;;;;10.55;1.90;;;18.30;95.70;;;;;;6176131;22;89996;-91
2023/09/21 05:31:31;;;;;;;2.25;1.30;;;18.30;95.80;;;;;;6175504;22;90393;-91
2023/09/21 05:33:57;;;;;;;6.40;1.65;;;18.30;96.00;;;;;;6174852;22;87667;-92
2023/09/21 05:36:23;;;;;;;4.25;1.58;;;18.30;96.00;;;;;;6175032;22;88004;-92
2023/09/21 05:38:48;;;;;;;3.22;1.20;;;18.30;96.00;;;;;;6174184;22;90070;-91
2023/09/21 05:41:14;;;;;;;2.75;1.67;;;18.30;96.10;;;;;;6173251;22;88943;-91
2023/09/21 05:43:42;;;;;;;4.95;1.63;;;18.30;96.20;;;;;;6173254;22;86794;-91
2023/09/21 05:46:09;;;;;;;5.30;1.80;;;18.40;96.20;;;;;;6176262;22;89115;-92
2023/09/21 05:48:34;;;;;;;3.22;1.67;;;18.30;96.10;;;;;;6179280;22;88906;-93
2023/09/21 05:51:01;;;;;;;3.00;1.42;;;18.40;96.30;;;;;;6185502;22;89372;-95
2023/09/21 05:53:52;;;;;;;3.33;1.85;;;18.40;96.20;;;;;;6168182;22;87639;-94
2023/09/21 05:56:21;;;;;;;3.70;1.83;;;18.30;96.20;;;;;;6193209;22;87368;-95
2023/09/21 05:58:52;;;;;;;6.35;1.77;;;18.40;96.50;;;;;;6200210;22;88111;-94
2023/09/21 06:01:19;;;;;;;3.92;1.80;;;18.40;96.50;;;;;;6192745;22;90065;-93
2023/09/21 06:03:47;;;;;;;6.43;1.70;;;18.40;96.60;;;;;;6224849;22;87024;-96
2023/09/21 06:06:19;;;;;;;7.20;2.15;;;18.40;96.60;;;;;;6199733;22;88169;-96
2023/09/21 06:08:46;;;;;;;7.22;2.58;;;18.40;96.90;;;;;;6191860;22;92637;-93
2023/09/21 06:11:13;;;;;;;5.28;1.80;;;18.40;96.60;;;;;;6190336;22;87644;-96
2023/09/21 06:13:39;;;;;;;6.15;1.90;;;18.40;96.50;;;;;;6183418;22;87768;-92
2023/09/21 06:16:05;;;;;;;4.60;1.50;;;18.40;96.70;;;;;;6177820;22;89409;-92
2023/09/21 06:18:30;;;;;;;3.72;2.00;;;18.40;97.00;;;;;;6176478;22;94626;-94
2023/09/21 06:20:57;;;;;;;5.15;1.60;;;18.40;96.60;;;;;;6176988;22;89320;-94
2023/09/21 06:23:23;;;;;;;3.80;1.50;;;18.40;96.70;;;;;;6175910;22;87903;-93
2023/09/21 06:25:49;;;;;;;3.25;1.80;;;18.40;96.50;;;;;;6176114;22;89131;-94
2023/09/21 06:28:17;;;;;;;6.18;1.80;;;18.50;96.90;;;;;;6176038;22;90005;-92
2023/09/21 06:30:44;;;;;;;4.55;2.10;;;18.50;96.60;;;;;;6174170;22;88803;-94
2023/09/21 06:33:10;;;;;;;4.07;2.20;;;18.50;96.70;;;;;;6176499;22;87044;-93
2023/09/21 06:35:36;;;;;;;4.68;1.40;;;18.50;96.90;;;;;;6175240;22;89108;-94
2023/09/21 06:38:01;;;;;;;4.78;2.13;;;18.60;96.80;;;;;;6179856;22;90065;-94
2023/09/21 06:40:28;;;;;;;3.95;1.70;;;18.60;97.10;;;;;;6174788;22;89180;-92
2023/09/21 06:42:53;;;;;;;4.18;1.75;;;18.60;96.70;;;;;;6179354;22;87381;-96
2023/09/21 06:45:19;;;;;;;3.35;1.83;;;18.60;97.20;;;;;;6191411;22;87838;-95
2023/09/21 06:47:50;;;;;;;5.15;1.65;;;18.70;97.50;;;;;;6182248;22;88708;-96
2023/09/21 06:50:17;;;;;;;5.40;1.80;;;18.60;97.40;;;;;;6187443;22;89721;-93
2023/09/21 06:52:45;;;;;;;3.70;1.55;;;18.70;97.50;;;;;;6162527;22;87594;-95
2023/09/21 06:55:14;;;;;;;2.40;1.70;;;18.70;97.50;;;;;;6185981;22;87782;-95
2023/09/21 06:57:41;;;;;;;2.53;1.60;;;18.70;97.60;;;;;;6186294;22;87523;-93
2023/09/21 07:00:10;;;;;;;3.50;1.80;;;18.70;97.70;;;;;;6156271;22;87929;-96
2023/09/21 07:02:36;;;;;;;3.22;1.45;;;18.70;97.80;;;;;;6184856;22;87684;-93
2023/09/21 07:05:02;;;;;;;4.80;1.52;;;18.60;97.90;;;;;;6178246;22;88666;-96
2023/09/21 07:07:29;;;;;;;5.68;1.92;;;18.60;97.80;;;;;;6179229;22;90526;-94
2023/09/21 07:09:54;;;;;;;4.00;1.63;;;18.70;98.30;;;;;;6181296;22;89868;-95
2023/09/21 07:12:22;;;;;;;5.82;1.70;;;18.60;97.90;;;;;;6179584;22;91306;-95
2023/09/21 07:14:49;;;;;;;4.43;1.88;;;18.60;98.20;;;;;;6153548;22;87480;-95
2023/09/21 07:17:16;;;;;;;4.20;1.80;;;18.60;98.00;;;;;;6178005;22;89009;-94
2023/09/21 07:19:41;;;;;;;2.40;1.75;;;18.60;98.30;;;;;;6169167;22;89064;-96
2023/09/21 07:22:07;;;;;;;4.45;1.50;;;18.60;98.30;;;;;;6175338;22;86693;-93
2023/09/21 07:24:33;;;;;;;3.63;1.92;;;18.60;98.40;;;;;;6176481;22;89232;-93
2023/09/21 07:27:00;;;;;;;2.85;1.80;;;18.60;98.60;;;;;;6173812;22;90842;-92
2023/09/21 07:29:26;;;;;;;4.18;1.63;;;18.60;98.70;;;;;;6176575;22;88447;-94
2023/09/21 07:31:52;;;;;;;5.53;1.95;;;18.60;98.50;;;;;;6180888;22;87457;-93
2023/09/21 07:34:19;;;;;;;2.55;1.65;;;18.60;98.40;;;;;;6179411;22;88791;-94
2023/09/21 07:36:46;;;;;;;2.40;1.48;;;18.60;99.10;;;;;;6183793;22;89311;-93
2023/09/21 07:39:13;;;;;;;6.50;2.05;;;18.70;98.50;;;;;;6183051;22;89830;-94
2023/09/21 07:41:40;;;;;;;4.32;1.63;;;18.70;98.50;;;;;;6152828;22;87547;-94
2023/09/21 07:44:08;;;;;;;4.80;2.00;;;18.60;98.60;;;;;;6178381;22;87863;-94
2023/09/21 07:46:36;;;;;;;3.90;1.52;;;18.60;98.60;;;;;;6180509;22;88336;-93
2023/09/21 07:49:07;;;;;;;5.22;1.90;;;18.60;98.40;;;;;;6180462;22;89507;-93
2023/09/21 07:51:33;;;;;;;3.83;1.48;;;18.70;98.30;;;;;;6180766;22;87479;-94
2023/09/21 07:54:00;;;;;;;4.07;1.60;;;18.70;98.30;;;;;;6153796;22;88889;-95
2023/09/21 07:56:27;;;;;;;3.60;1.75;;;18.70;98.30;;;;;;6182261;22;90014;-94
2023/09/21 07:58:52;;;;;;;4.65;1.58;;;18.80;98.30;;;;;;6180648;22;90699;-94
2023/09/21 08:01:18;;;;;;;3.70;1.58;;;18.80;98.10;;;;;;6181043;22;87918;-94
2023/09/21 08:03:44;;;;;;;4.70;1.40;;;18.90;98.20;;;;;;6157751;22;88365;-95
2023/09/21 08:06:10;;;;;;;4.07;1.30;;;18.90;97.90;;;;;;6180571;22;90044;-93
2023/09/21 08:08:35;;;;;;;4.70;1.38;;;19.00;98.10;;;;;;6181797;22;89769;-93
2023/09/21 08:11:03;;;;;;;4.53;1.33;;;19.00;98.10;;;;;;6181609;22;86763;-93
2023/09/21 08:13:29;;;;;;;3.65;1.55;;;19.10;97.60;;;;;;6173978;22;88005;-92
2023/09/21 08:15:55;;;;;;;4.80;1.20;;;19.10;97.80;;;;;;6176335;22;89436;-93
2023/09/21 08:18:21;;;;;;;2.40;1.30;;;19.20;97.80;;;;;;6178437;22;89931;-93
2023/09/21 08:20:47;;;;;;;3.22;1.40;;;19.30;97.80;;;;;;6185118;22;87937;-92
2023/09/21 08:23:14;;;;;;;6.00;1.52;;;19.30;97.60;;;;;;6180657;22;89140;-92
2023/09/21 08:25:40;;;;;;;2.47;1.33;;;19.30;97.80;;;;;;6172196;22;90781;-93
2023/09/21 08:28:05;;;;;;;4.13;1.00;;;19.40;97.40;;;;;;6174777;22;88825;-92
2023/09/21 08:30:32;;;;;;;2.90;1.55;;;19.40;97.50;;;;;;6173758;22;87595;-94
2023/09/21 08:33:01;;;;;;;2.60;1.30;;;19.50;97.10;;;;;;6164297;22;87946;-90
2023/09/21 08:35:29;;;;;;;2.70;1.60;;;19.50;97.50;;;;;;6167644;22;88657;-93
2023/09/21 08:37:55;;;;;;;4.95;1.30;;;19.60;97.20;;;;;;6175993;22;89183;-92
2023/09/21 08:40:21;;;;;;;1.58;1.20;;;19.60;96.90;;;;;;6174776;22;87482;-94
2023/09/21 08:42:57;;;;;;;2.53;1.27;;;19.70;97.00;;;;;;6174042;22;88436;-94
2023/09/21 08:45:23;;;;;;;3.70;1.20;;;19.70;96.90;;;;;;6178418;22;90747;-94
2023/09/21 08:47:49;;;;;;;2.55;1.58;;;19.80;96.60;;;;;;6173594;22;88404;-93
2023/09/21 08:50:15;;;;;;;1.92;1.42;;;19.80;96.60;;;;;;6172985;22;87419;-93
2023/09/21 08:52:45;;;;;;;2.60;1.40;;;19.90;96.30;;;;;;6172741;22;87994;-92
2023/09/21 08:55:14;;;;;;;2.80;1.35;;;19.90;96.10;;;;;;6171856;22;89543;-92
2023/09/21 08:57:41;;;;;;;2.97;1.20;;;19.90;96.30;;;;;;6174560;22;88550;-95
2023/09/21 09:00:10;;;;;;;4.13;1.35;;;20.00;96.30;;;;;;6174172;22;87600;-95
2023/09/21 09:02:37;;;;;;;4.93;1.60;;;20.00;96.20;;;;;;6173043;22;87538;-96
2023/09/21 09:05:07;;;;;;;4.50;1.38;;;20.10;95.80;;;;;;6183419;22;89033;-96
2023/09/21 09:07:40;;;;;;;2.00;1.23;;;20.10;96.10;;;;;;6155290;22;88427;-94
2023/09/21 09:10:09;;;;;;;6.80;1.40;;;20.10;95.80;;;;;;6188266;22;87907;-94
2023/09/21 09:12:37;;;;;;;4.18;1.25;;;20.20;95.30;;;;;;6184856;22;89429;-95
2023/09/21 09:15:05;;;;;;;2.20;1.27;;;20.20;95.60;;;;;;6153759;22;90431;-94
2023/09/21 09:17:31;;;;;;;2.70;1.33;;;20.20;95.70;;;;;;6179071;22;89069;-94
2023/09/21 09:19:58;;;;;;;4.30;1.52;;;20.20;95.50;;;;;;6179505;22;86993;-94
2023/09/21 09:22:23;;;;;;;4.53;1.45;;;20.20;95.70;;;;;;6179023;22;88814;-94
2023/09/21 09:24:50;;;;;;;2.78;1.10;;;20.20;95.40;;;;;;6181517;22;89297;-92
2023/09/21 09:27:17;;;;;;;2.53;1.40;;;20.20;95.20;;;;;;6183955;22;87027;-94
2023/09/21 09:29:48;;;;;;;4.13;1.10;;;20.20;95.70;;;;;;6188032;22;87098;-93
2023/09/21 09:32:16;;;;;;;5.30;1.33;;;20.20;95.70;;;;;;6183607;22;88794;-92
2023/09/21 09:34:41;;;;;;;5.45;1.55;;;20.20;95.50;;;;;;6183585;22;89900;-94
2023/09/21 09:37:12;;;;;;;3.38;1.48;;;20.20;95.60;;;;;;6183351;22;88506;-92
2023/09/21 09:39:38;;;;;;;3.28;1.10;;;20.10;95.40;;;;;;6185390;22;87608;-92
2023/09/21 09:42:06;;;;;;;1.75;1.30;;;20.10;95.50;;;;;;6186412;22;87830;-94
2023/09/21 09:44:39;;;;;;;3.05;1.25;;;20.10;95.50;;;;;;6185549;22;87998;-92
2023/09/21 09:47:09;;;;;;;5.35;1.98;;;20.10;95.40;;;;;;6176232;22;90209;-94
2023/09/21 09:49:38;;;;;;;3.17;1.20;;;20.10;95.30;;;;;;6183327;22;86653;-92
2023/09/21 09:52:06;;;;;;;4.35;1.80;;;20.10;95.10;;;;;;6183955;22;87595;-93
2023/09/21 09:54:32;;;;;;;1.85;1.17;;;20.10;95.30;;;;;;6182610;22;92401;-93
2023/09/21 09:56:59;;;;;;;2.72;1.40;;;20.10;95.30;;;;;;6182756;22;88390;-92
2023/09/21 09:59:28;;;;;;;2.92;1.40;;;20.10;95.40;;;;;;6183017;22;93892;-94
2023/09/21 10:01:56;;;;;;;4.03;1.23;;;20.10;95.30;;;;;;6184143;22;87920;-94
2023/09/21 10:04:22;;;;;;;3.65;1.40;;;20.10;95.40;;;;;;6147883;22;89176;-73
2023/09/21 10:06:48;;;;;;;2.83;1.45;;;20.10;95.30;;;;;;6143895;22;88198;-74
2023/09/21 10:09:14;;;;;;;4.03;1.80;;;20.20;95.50;;;;;;6141058;22;87880;-73
2023/09/21 10:11:44;;;;;;;3.20;1.20;;;20.10;95.70;;;;;;6139485;22;90257;-74
2023/09/21 10:14:12;;;;;;;5.72;1.25;;;20.10;95.80;;;;;;6141900;22;87802;-73
2023/09/21 10:16:49;;;;;;;2.53;1.30;;;20.10;95.40;;;;;;6139782;22;87927;-73
2023/09/21 10:19:22;;;;;;;4.85;1.38;;;20.10;95.40;;;;;;6141038;22;87489;-76
2023/09/21 10:21:49;;;;;;;3.30;1.10;;;20.10;95.40;;;;;;6142010;22;88513;-75
2023/09/21 10:24:18;;;;;;;4.50;1.13;;;20.20;95.10;;;;;;6164706;22;89604;-73
2023/09/21 10:26:46;;;;;;;4.68;1.55;;;20.20;95.10;;;;;;6140964;22;87913;-75
2023/09/21 10:29:12;;;;;;;2.45;1.30;;;20.30;95.10;;;;;;6141262;22;87584;-74
2023/09/21 10:31:41;;;;;;;3.90;1.40;;;20.30;95.40;;;;;;6141735;22;87827;-74
2023/09/21 10:34:10;;;;;;;3.90;1.13;;;20.30;95.30;;;;;;6139720;22;89362;-74
2023/09/21 10:36:45;;;;;;;2.92;1.20;;;20.30;95.20;;;;;;6141179;22;88821;-75
2023/09/21 10:39:10;;;;;;;3.70;1.50;;;20.30;95.40;;;;;;6142665;22;86598;-74
2023/09/21 10:41:45;;;;;;;3.05;1.30;;;20.40;95.40;;;;;;6139953;22;87853;-74
2023/09/21 10:44:12;;;;;;;4.32;1.38;;;20.40;94.90;;;;;;6142300;22;88583;-75
2023/09/21 10:46:41;;;;;;;2.25;1.02;;;20.50;94.90;;;;;;6140675;22;88665;-74
2023/09/21 10:49:06;;;;;;;1.92;1.20;;;20.60;94.50;;;;;;6141003;22;87403;-74
2023/09/21 10:51:40;;;;;;;4.35;1.38;;;20.70;94.80;;;;;;6141909;22;87872;-74
2023/09/21 10:54:10;;;;;;;;;;;20.80;95.30;;;;;;6141410;22;87790;-73
2023/09/21 10:56:41;;;;;;;2.90;1.35;;;20.80;94.40;;;;;;6142344;22;87503;-75
2023/09/21 10:59:07;;;;;;;3.45;1.05;;;20.80;93.90;;;;;;6141138;22;87912;-76
2023/09/21 11:01:34;;;;;;;2.92;1.00;;;20.80;94.30;;;;;;6141027;22;87476;-76
2023/09/21 11:04:00;;;;;;;3.47;1.30;;;20.80;94.20;;;;;;6141344;22;87003;-77
2023/09/21 11:06:28;;;;;;;2.38;1.55;;;20.80;94.50;;;;;;6141171;22;88232;-76
2023/09/21 11:08:55;;;;;;;2.10;0.90;;;20.80;94.60;;;;;;6140180;22;87615;-75
2023/09/21 11:11:21;;;;;;;3.20;1.10;;;20.90;94.20;;;;;;6139626;22;87993;-75
2023/09/21 11:13:51;;;;;;;2.10;1.20;;;20.80;93.80;;;;;;6140162;22;88520;-75
2023/09/21 11:16:18;;;;;;;4.22;1.20;;;20.80;94.00;;;;;;6138241;22;88741;-75
2023/09/21 11:18:44;;;;;;;5.13;1.10;;;20.80;93.90;;;;;;6139090;22;87586;-76
2023/09/21 11:21:11;;;;;;;2.25;1.08;;;20.80;94.10;;;;;;6139729;22;87940;-76
2023/09/21 11:23:40;;;;;;;4.47;1.33;;;20.70;94.20;;;;;;6140055;22;88418;-75
2023/09/21 11:26:10;;;;;;;3.85;1.08;;;20.70;94.70;;;;;;6136869;22;87973;-74
2023/09/21 11:28:37;;;;;;;3.85;1.30;;;20.70;94.40;;;;;;6139004;22;87823;-74
2023/09/21 11:31:05;;;;;;;1.90;1.10;;;20.60;94.80;;;;;;6164398;22;90226;-76
2023/09/21 11:33:35;;;;;;;3.90;1.60;;;20.60;94.40;;;;;;6138274;22;93374;-74
2023/09/21 11:36:04;;;;;;;3.03;1.38;;;20.60;94.80;;;;;;6136912;22;91282;-75
2023/09/21 11:38:33;;;;;;;1.15;1.00;;;20.60;94.60;;;;;;6136698;22;87569;-74
2023/09/21 11:40:59;;;;;;;3.28;1.20;;;20.60;94.90;;;;;;6136865;22;87679;-74
2023/09/21 11:43:25;;;;;;;2.08;1.15;;;20.60;94.80;;;;;;6137676;22;89226;-74
2023/09/21 11:45:52;;;;;;;2.38;1.08;;;20.60;94.90;;;;;;6140174;22;87899;-74
2023/09/21 11:48:21;;;;;;;1.90;1.00;;;20.60;94.60;;;;;;6140332;22;87505;-76
2023/09/21 11:50:48;;;;;;;2.60;1.33;;;20.60;94.90;;;;;;6139263;22;87545;-75
2023/09/21 11:53:14;;;;;;;1.73;1.00;;;20.60;95.10;;;;;;6138600;22;86971;-75
2023/09/21 11:55:41;;;;;;;2.92;1.10;;;20.50;94.70;;;;;;6136859;22;88165;-74
2023/09/21 11:58:15;;;;;;;2.55;1.17;;;20.40;94.60;;;;;;6136429;22;87872;-75
2023/09/21 12:01:12;;;;;;;3.00;1.25;;;20.40;94.70;;;;;;6138280;22;88166;-75
2023/09/21 12:03:38;;;;;;;2.20;1.30;;;20.40;94.80;;;;;;6139388;22;93246;-75
2023/09/21 12:06:04;;;;;;;8.02;1.75;;;20.40;95.20;;;;;;6139562;22;88489;-75
2023/09/21 12:08:31;;;;;;;2.22;1.10;;;20.40;95.50;;;;;;6139461;22;87616;-75
2023/09/21 12:10:57;;;;;;;2.60;1.40;;;20.30;95.10;;;;;;6139143;22;87923;-75
2023/09/21 12:13:23;;;;;;;2.53;1.38;;;20.30;95.20;;;;;;6138943;22;88505;-75
2023/09/21 12:15:55;;;;;;;2.88;1.33;;;20.30;96.00;;;;;;6139374;22;89462;-74
2023/09/21 12:18:21;;;;;;;4.40;1.25;;;20.30;96.40;;;;;;6141336;22;86750;-74
2023/09/21 12:20:51;;;;;;;2.25;1.10;;;20.30;95.90;;;;;;6139457;22;87886;-75
2023/09/21 12:23:18;;;;;;;1.88;1.05;;;20.30;96.20;;;;;;6141841;22;88769;-76
2023/09/21 12:25:45;;;;;;;1.55;0.98;;;20.30;95.40;;;;;;6165861;22;88862;-77
2023/09/21 12:28:11;;;;;;;1.90;1.05;;;20.30;96.30;;;;;;6141677;22;88080;-76
2023/09/21 12:30:41;;;;;;;3.50;1.25;;;20.30;96.70;;;;;;6141902;22;87730;-75
2023/09/21 12:33:07;;;;;;;1.42;1.05;;;20.30;96.50;;;;;;6141441;22;87841;-75
2023/09/21 12:35:33;;;;;;;3.78;1.80;;;20.20;97.00;;;;;;6143105;22;87788;-76
2023/09/21 12:37:59;;;;;;;3.33;1.33;;;20.10;97.40;;;;;;6141730;22;87692;-75
2023/09/21 12:40:25;;;;;;;2.05;1.20;;;20.10;97.60;;;;;;6139263;22;87515;-75
2023/09/21 12:42:52;;;;;;;6.28;1.20;;;20.10;98.00;;;;;;6141574;22;86790;-75
2023/09/21 12:45:17;;;;;;;7.82;1.52;;;20.10;98.20;;;;;;6141158;22;88362;-75
2023/09/21 12:47:44;;;;;;;4.40;2.00;;;20.10;98.60;;;;;;6141044;22;87663;-75
2023/09/21 12:50:13;;;;;;;1.95;1.35;;;20.10;98.90;;;;;;6138592;22;88772;-75
2023/09/21 12:53:00;;;;;;;2.25;1.30;;;20.10;99.20;;;;;;6163791;22;90676;-76